Decoded Metar for YSWG (WAGGA WAGGA in AUSTRALIA) (IATA:WGA) | Meteo·Mobile Aviation Weather
aviador You're here:

YSWG Decoded Metar

WAGGA WAGGA in AUSTRALIA
Report Time2019-07-20 01:00:00
UTC Time2019-07-20 01:20:52
Flight Rules vfr VFR
Wind070° at 07 kt
W.Decomp.*RWY 05: 6.9 kt HW 1.0 kt RCW
RWY 12: 3.3 kt HW 6.2 kt LCW
Visibility9999 m
Phenomena:N/A
Clouds:N/A
Expected CloudBase > 1,600 ft AGL from Temp-Dew spread
CeilingNone
Temp12°C (ISA -2)
Dew Point08°C (77% RH)
AAT9.0°C
QNH1023 hPa
Density Alt318 ft
Elevation699 ft
Report Wrong Elevation
Raw Report
YSWG 200100Z AUTO 07007KT 9999 // NCD 12/08 Q1023=

Extra information for YSWG:More info

Metar Taf Metar & Taf Last 4 Metars F.Rules Stats Wind Profile Meteogram Temp Stats Airport Information Weather charts Add Link Nearby VenuesMetar ALERT Operation Metar Decoded Social comments